• Join FlightAware (Why Join?)
  • Login
  • US Flag 
05:47PM EDT


 

Airport Tracker/Info


-or-


 

Live Flight TrackerFlight Track Log ✈ VH-PXE ✈ 14-Aug-2013 ✈ YGWN - YPKA / KTA

Flight Track Log - Related Links

Times and Time Zones

All times are in EDT time to prevent confusion due to time zone crossing. See the VH-PXE flight status page for this flight to view local times or setup timezone preferences in your user account.

Time Position Orientation Groundspeed Altitude Reporting Facility
EDT Latitude Longitude Course Direction KTS MPH feet Rate Location/Type
10:28PM -19.8527 116.0860 360° North  Level Aus ATC (Calculated)
10:28PM -19.8527 116.0860 143° Southeast 300 480 Climbing Aus ATC (Calculated)
10:30PM -19.8883 116.1142 143° Southeast  Level Estimated
10:31PM -19.9196 116.1391 143° Southeast  Level Estimated
10:31PM -19.9607 116.1716 360° North 300  Level Aus ATC (Calculated)
10:31PM -19.9607 116.1716 360° North 300  Level Aus ATC (Calculated)
10:31PM -19.9607 116.1716 143° Southeast 300  Level Aus ATC (Calculated)
10:33PM -19.9967 116.2003 143° Southeast  Level Estimated
10:34PM -20.0254 116.2231 143° Southeast  Level Estimated
10:35PM -20.0567 116.2481 143° Southeast  Level Estimated
10:36PM -20.0881 116.2730 143° Southeast  Level Estimated
10:37PM -20.1194 116.2980 143° Southeast  Level Estimated
10:38PM -20.1507 116.3230 143° Southeast  Level Estimated
10:39PM -20.1820 116.3480 143° Southeast  Level Estimated
10:40PM -20.2133 116.3730 143° Southeast  Level Estimated
10:41PM -20.2446 116.3980 143° Southeast  Level Estimated
10:42PM -20.2759 116.4230 143° Southeast  Level Estimated
10:42PM -20.3382 116.4720 324° Northwest 300  Level Aus ATC (Calculated)
10:43PM -20.3072 116.4481 143° Southeast  Level Estimated
10:44PM -20.3824 116.5076 143° Southeast  Level Estimated
10:45PM -20.4137 116.5327 143° Southeast  Level Estimated
10:46PM -20.4449 116.5578 143° Southeast  Level Estimated
10:47PM -20.4762 116.5830 143° Southeast  Level Estimated
10:48PM -20.5074 116.6081 143° Southeast  Level Estimated
10:49PM -20.5386 116.6333 143° Southeast  Level Estimated
10:50PM -20.5699 116.6584 143° Southeast  Level Estimated
10:51PM -20.6011 116.6836 143° Southeast  Level Estimated
10:52PM -20.6323 116.7088 143° Southeast  Level Estimated
10:53PM -20.6635 116.7340 143° Southeast  Level Estimated
10:54PM -20.6947 116.7592 143° Southeast  Level Estimated
10:55PM -20.7122 116.7733 143° Southeast  Level Estimated
10:56PM -20.7122 116.7733 125° Southeast  Level Estimated
10:57PM -20.7122 116.7733 125° Southeast  Level Estimated